Wetterdaten der Wetterstation 31177 Harsum

Letzte Wetterlage 02.08.2015 10:03
Wetterdiagramm
Tabellarische Darstellung
Datum Temperatur Windchill Feuchte Luftdruck Windrichtung Windstärke Niederschlag
02.08.2015 10:03 24,6 °C 24,6 °C 34 % 1019,1 hPa 203 0.2 0 l/m²
02.08.2015 09:43 23,4 °C 23,4 °C 41 % 1019,0 hPa 180 0.4 0 l/m²
02.08.2015 09:22 22,6 °C 22,6 °C 42 % 1018,1 hPa 203 0.4 0 l/m²
02.08.2015 09:01 22,4 °C 22,4 °C 52 % 1018,1 hPa 203 0.2 0 l/m²
02.08.2015 08:41 20,3 °C 20,3 °C 67 % 1018,0 hPa 180 0.3 0 l/m²
02.08.2015 08:20 15,6 °C 15,6 °C 83 % 1017,1 hPa 225 0.3 0 l/m²
02.08.2015 07:59 14,1 °C 14,1 °C 86 % 1017,1 hPa 225 0.0 0 l/m²
02.08.2015 07:39 13,2 °C 13,2 °C 88 % 1017,1 hPa 225 0.1 0 l/m²
02.08.2015 07:18 12,3 °C 12,3 °C 89 % 1017,1 hPa 225 0.0 0 l/m²
02.08.2015 06:57 11,7 °C 11,7 °C 89 % 1017,1 hPa 203 0.0 0 l/m²
02.08.2015 06:36 11,2 °C 11,2 °C 86 % 1018,1 hPa 180 0.0 0 l/m²
02.08.2015 06:16 11,2 °C 11,2 °C 84 % 1017,1 hPa 180 0.0 0 l/m²
02.08.2015 05:55 11,5 °C 11,5 °C 84 % 1017,1 hPa 180 0.0 0 l/m²
02.08.2015 05:34 11,8 °C 11,8 °C 82 % 1017,1 hPa 180 0.0 0 l/m²
02.08.2015 05:14 12,0 °C 12,0 °C 83 % 1016,1 hPa 180 0.0 0 l/m²
02.08.2015 04:53 12,2 °C 12,2 °C 80 % 1016,1 hPa 225 0.0 0 l/m²
02.08.2015 04:33 12,8 °C 12,8 °C 81 % 1016,1 hPa 225 0.0 0 l/m²
02.08.2015 04:12 12,8 °C 12,8 °C 80 % 1016,0 hPa 225 0.0 0 l/m²
02.08.2015 03:51 13,1 °C 13,1 °C 80 % 1015,1 hPa 203 0.0 0 l/m²
02.08.2015 03:30 12,9 °C 12,9 °C 79 % 1015,1 hPa 225 0.2 0 l/m²
02.08.2015 03:09 13,2 °C 13,2 °C 78 % 1015,1 hPa 203 0.0 0 l/m²
02.08.2015 02:48 13,4 °C 13,4 °C 79 % 1015,1 hPa 180 0.0 0 l/m²
02.08.2015 02:27 13,5 °C 13,5 °C 78 % 1014,1 hPa 225 0.0 0 l/m²
02.08.2015 02:06 13,7 °C 13,7 °C 77 % 1015,1 hPa 225 0.0 0 l/m²
02.08.2015 01:45 13,9 °C 13,9 °C 76 % 1014,4 hPa 225 0.0 0 l/m²
Neue Wetterwarnung

Neue Niederschlagsmeldung
Neue Meldung
Regen Liveticker
    sehr starker Regen/Gewitter
    starker Regen/Gewitter
    mäßiger bis starker Regen
    mäßiger Regen
    leichter bis mäßiger Regen
    kein Regen